Time;durP1;ratioP1;P1;durP2;ratioP2;P2;SDS_P1;SDS_P2;PMS_P1;PMS_P2;Temp;Humidity;BMP_temperature;BMP_pressure;BME280_temperature;BME280_humidity;BME280_pressure;Samples;Min_cycle;Max_cycle;Signal;HPM_P1;HPM_P2
2021/01/29 17:26:57;;;;;;;5.30;2.53;;;;;;;19.65;41.42;99739.06;5080989;27;1160533;-74
2021/01/29 17:29:34;;;;;;;8.57;2.60;;;;;;;19.69;41.65;99743.94;5048016;28;20357;-75
2021/01/29 17:32:00;;;;;;;6.70;2.67;;;;;;;19.70;41.41;99747.50;5024423;28;20659;-72
2021/01/29 17:34:28;;;;;;;9.77;3.72;;;;;;;19.66;41.55;99743.50;5022311;28;20053;-70
2021/01/29 17:36:58;;;;;;;6.90;3.30;;;;;;;19.52;41.39;99743.44;5036977;28;20052;-70
2021/01/29 17:39:27;;;;;;;7.82;3.90;;;;;;;19.52;41.24;99743.44;5022746;28;20025;-70
2021/01/29 17:41:52;;;;;;;7.82;3.63;;;;;;;19.45;41.10;99726.19;5042072;28;20091;-70
2021/01/29 17:44:25;;;;;;;6.20;3.75;;;;;;;19.59;41.07;99742.63;5027159;28;20080;-70
2021/01/29 17:46:51;;;;;;;9.48;3.80;;;;;;;19.53;40.84;99726.03;5019928;28;20065;-70
2021/01/29 17:49:25;;;;;;;7.30;4.05;;;;;;;19.64;40.73;99735.50;5029210;28;20037;-69
2021/01/29 17:51:50;;;;;;;8.27;3.90;;;;;;;19.67;40.68;99734.28;5049059;28;20071;-70
2021/01/29 17:54:16;;;;;;;15.13;4.15;;;;;;;19.68;40.72;99725.03;5028775;28;20141;-70
2021/01/29 17:56:46;;;;;;;11.38;4.40;;;;;;;19.68;40.81;99722.31;5028556;28;20046;-69
2021/01/29 17:59:11;;;;;;;9.30;4.30;;;;;;;19.73;40.80;99728.00;5044518;28;20029;-69
2021/01/29 18:01:54;;;;;;;7.78;3.67;;;;;;;19.69;40.71;99718.56;5043292;28;20067;-69
2021/01/29 18:04:27;;;;;;;10.50;4.40;;;;;;;19.71;40.76;99730.91;5027095;28;20136;-69
2021/01/29 18:06:54;;;;;;;8.38;4.00;;;;;;;19.55;40.62;99703.22;5041629;28;20049;-69
2021/01/29 18:09:28;;;;;;;30.50;4.20;;;;;;;19.69;40.74;99721.28;5052218;28;20285;-69
2021/01/29 18:12:01;;;;;;;6.75;3.80;;;;;;;19.66;40.85;99721.69;5091812;28;20446;-70
2021/01/29 18:14:33;;;;;;;10.10;4.25;;;;;;;19.59;41.20;99720.81;5084859;28;20028;-71
2021/01/29 18:17:39;;;;;;;7.65;3.47;;;;;;;19.65;41.11;99730.88;5072135;28;20064;-74
2021/01/29 18:20:21;;;;;;;8.00;2.80;;;;;;;19.67;41.23;99724.22;5082684;28;20039;-71
2021/01/29 18:22:49;;;;;;;9.90;3.75;;;;;;;19.80;41.84;99734.28;5060613;28;20157;-70
2021/01/29 18:25:16;;;;;;;7.68;4.03;;;;;;;19.68;43.58;99697.78;5084605;28;20038;-73
2021/01/29 18:27:41;;;;;;;225.07;115.88;;;;;;;19.94;44.25;99730.53;5089970;28;20468;-71
2021/01/29 18:30:08;;;;;;;176.27;88.20;;;;;;;19.90;44.21;99717.53;5089790;28;20031;-69
2021/01/29 18:32:34;;;;;;;156.65;83.03;;;;;;;20.07;44.49;99730.53;5080588;28;20034;-70
2021/01/29 18:35:00;;;;;;;149.63;72.45;;;;;;;20.13;44.91;99726.97;5091437;28;20027;-71
2021/01/29 18:37:26;;;;;;;136.55;66.35;;;;;;;20.08;46.16;99721.31;5063695;28;20070;-70
2021/01/29 18:39:52;;;;;;;134.23;65.68;;;;;;;20.08;45.31;99721.31;5071435;28;20031;-69
2021/01/29 18:42:18;;;;;;;115.95;59.90;;;;;;;20.09;44.73;99722.16;5053008;28;20028;-69
2021/01/29 18:44:46;;;;;;;100.10;52.60;;;;;;;20.03;44.07;99718.38;5057178;28;20434;-69
2021/01/29 18:47:11;;;;;;;76.10;43.10;;;;;;;19.98;43.94;99726.31;5042626;28;20036;-69
2021/01/29 18:49:37;;;;;;;72.65;39.50;;;;;;;19.95;43.59;99728.63;5077530;28;20450;-69
2021/01/29 18:52:03;;;;;;;64.45;32.55;;;;;;;19.91;43.70;99711.84;5059325;28;20453;-69
2021/01/29 18:54:30;;;;;;;56.08;27.67;;;;;;;19.95;43.70;99726.75;5090189;28;20042;-69
2021/01/29 18:56:55;;;;;;;60.00;30.55;;;;;;;20.03;43.15;99726.56;5076141;28;20042;-69
2021/01/29 18:59:21;;;;;;;44.55;23.60;;;;;;;19.97;43.02;99718.34;5069856;28;20028;-69
2021/01/29 19:01:46;;;;;;;40.42;20.67;;;;;;;20.09;42.79;99731.16;5087191;28;20081;-71
2021/01/29 19:04:12;;;;;;;36.35;18.50;;;;;;;20.08;42.83;99721.31;5071155;28;20028;-69
2021/01/29 19:06:39;;;;;;;32.70;18.45;;;;;;;20.10;42.50;99724.66;5073859;28;20386;-69
2021/01/29 19:09:04;;;;;;;33.50;15.93;;;;;;;20.06;42.41;99717.94;5071438;28;20024;-69
2021/01/29 19:11:30;;;;;;;26.77;14.38;;;;;;;20.15;42.43;99732.22;5064935;28;20039;-70
2021/01/29 19:13:56;;;;;;;26.75;14.90;;;;;;;20.12;42.28;99728.00;5055379;28;20328;-69
2021/01/29 19:16:23;;;;;;;27.35;13.48;;;;;;;19.98;42.31;99709.97;5069106;28;20058;-69
2021/01/29 19:18:49;;;;;;;27.23;13.38;;;;;;;19.99;42.03;99722.56;5066545;28;20035;-70
2021/01/29 19:21:16;;;;;;;21.08;11.35;;;;;;;19.88;42.04;99720.47;5069031;28;20024;-69
2021/01/29 19:23:42;;;;;;;22.83;11.65;;;;;;;19.91;42.29;99730.94;5041755;28;20132;-69
2021/01/29 19:26:08;;;;;;;25.35;12.05;;;;;;;19.86;42.11;99721.72;5090898;28;20523;-69
2021/01/29 19:28:35;;;;;;;20.40;10.90;;;;;;;19.90;42.04;99728.44;5071879;28;20051;-69
2021/01/29 19:31:01;;;;;;;20.50;10.70;;;;;;;19.91;42.18;99730.09;5070292;28;20168;-69
2021/01/29 19:33:27;;;;;;;18.05;9.77;;;;;;;19.96;41.87;99736.59;5050020;28;20107;-69
2021/01/29 19:35:53;;;;;;;17.90;9.75;;;;;;;19.81;41.87;99705.97;5095707;28;20034;-69
2021/01/29 19:38:19;;;;;;;17.27;9.63;;;;;;;19.94;41.87;99721.50;5074091;28;20031;-69
2021/01/29 19:40:45;;;;;;;14.88;9.23;;;;;;;20.03;41.49;99728.44;5059003;28;20024;-69
2021/01/29 19:43:11;;;;;;;18.30;8.48;;;;;;;20.01;41.58;99720.47;5054799;28;20331;-68
2021/01/29 19:45:37;;;;;;;19.17;9.70;;;;;;;19.94;41.55;99703.25;5068283;28;20032;-70
2021/01/29 19:48:03;;;;;;;16.70;8.43;;;;;;;19.99;41.35;99717.13;5047595;28;20091;-69
2021/01/29 19:50:29;;;;;;;13.40;7.85;;;;;;;19.93;41.51;99711.66;5075032;28;20056;-69
2021/01/29 19:52:55;;;;;;;16.85;9.30;;;;;;;19.96;41.52;99722.97;5063509;28;20040;-69
2021/01/29 19:55:21;;;;;;;14.27;7.18;;;;;;;19.85;41.50;99718.16;5093999;28;20024;-69
2021/01/29 19:57:48;;;;;;;14.80;8.63;;;;;;;19.77;41.89;99715.59;5075827;28;20036;-69
2021/01/29 20:00:21;;;;;;;15.05;7.65;;;;;;;19.83;41.55;99728.44;5063846;28;20350;-69
2021/01/29 20:02:46;;;;;;;13.75;6.95;;;;;;;19.86;42.02;99732.63;5086526;28;20033;-69
2021/01/29 20:05:13;;;;;;;13.18;6.97;;;;;;;19.82;42.04;99726.75;5085573;28;20342;-69
2021/01/29 20:07:39;;;;;;;10.32;6.35;;;;;;;19.90;41.74;99723.81;5021178;28;20048;-69
2021/01/29 20:10:05;;;;;;;10.35;6.65;;;;;;;19.93;41.48;99731.56;5069896;28;20107;-70
2021/01/29 20:12:31;;;;;;;11.35;6.10;;;;;;;19.94;41.72;99721.50;5073414;28;20099;-69
2021/01/29 20:14:56;;;;;;;13.77;6.15;;;;;;;19.94;41.52;99711.44;5094352;28;20123;-69
2021/01/29 20:17:26;;;;;;;11.70;6.22;;;;;;;19.99;41.43;99717.13;5075806;28;20069;-69
2021/01/29 20:19:52;;;;;;;9.85;6.40;;;;;;;20.02;41.34;99716.69;5074360;28;20504;-70
2021/01/29 20:22:20;;;;;;;11.88;5.68;;;;;;;20.02;41.52;99719.44;5053180;28;20024;-70
2021/01/29 20:24:46;;;;;;;7.20;4.90;;;;;;;19.98;41.47;99712.69;5049757;28;20028;-70
2021/01/29 20:27:15;;;;;;;8.48;4.82;;;;;;;19.87;41.46;99696.97;5061301;28;20058;-69
2021/01/29 20:29:42;;;;;;;8.60;5.10;;;;;;;19.89;41.29;99721.31;5053469;28;20096;-69
2021/01/29 20:32:08;;;;;;;11.05;5.88;;;;;;;19.85;41.36;99720.88;5071353;28;20704;-71
2021/01/29 20:34:34;;;;;;;8.82;5.32;;;;;;;19.80;41.62;99713.31;5084954;28;20036;-69
2021/01/29 20:37:02;;;;;;;11.05;4.50;;;;;;;19.79;41.43;99716.25;5056405;28;20115;-69
2021/01/29 20:39:29;;;;;;;10.55;5.20;;;;;;;19.86;41.30;99714.38;5071498;28;20030;-70
2021/01/29 20:41:55;;;;;;;10.18;4.90;;;;;;;19.86;41.36;99711.66;5050684;28;20384;-69
2021/01/29 20:44:21;;;;;;;7.57;5.13;;;;;;;19.96;41.26;99717.50;5081750;28;20431;-70
2021/01/29 20:46:47;;;;;;;6.75;4.85;;;;;;;19.96;41.27;99714.78;5091670;28;20044;-70
2021/01/29 20:49:12;;;;;;;8.93;4.50;;;;;;;20.01;41.07;99725.09;5072776;28;20113;-69
2021/01/29 20:51:38;;;;;;;6.75;4.20;;;;;;;19.86;41.33;99697.19;5093312;28;20089;-69
2021/01/29 20:54:04;;;;;;;8.68;4.72;;;;;;;20.05;41.39;99727.19;5088698;28;20028;-70
2021/01/29 20:56:30;;;;;;;6.55;3.90;;;;;;;19.99;41.43;99717.13;5089291;28;20028;-70
2021/01/29 20:58:56;;;;;;;5.70;3.78;;;;;;;20.02;41.00;99727.63;5054019;28;20020;-71
2021/01/29 21:01:21;;;;;;;7.40;4.05;;;;;;;19.99;41.00;99722.56;5077273;28;20028;-71
2021/01/29 21:03:47;;;;;;;8.25;3.95;;;;;;;19.97;41.20;99723.81;5073274;28;20488;-70
2021/01/29 21:06:12;;;;;;;7.35;4.22;;;;;;;19.79;41.21;99699.88;5092596;28;20848;-70
2021/01/29 21:08:39;;;;;;;5.88;3.85;;;;;;;19.80;41.35;99720.63;5072181;28;20066;-70
2021/01/29 21:11:05;;;;;;;6.38;3.67;;;;;;;19.85;41.56;99726.34;5089970;28;20032;-69
2021/01/29 21:13:31;;;;;;;6.10;3.45;;;;;;;19.87;41.73;99721.50;5072650;28;20076;-69
